Time;durP1;ratioP1;P1;durP2;ratioP2;P2;SDS_P1;SDS_P2;PMS_P1;PMS_P2;Temp;Humidity;BMP_temperature;BMP_pressure;BME280_temperature;BME280_humidity;BME280_pressure;Samples;Min_cycle;Max_cycle;Signal;HPM_P1;HPM_P2
2022/04/29 00:03:16;;;;;;;5.10;4.70;;;11.50;27.50;;;;;;10297422;28;20230;-74
2022/04/29 00:08:19;;;;;;;5.50;5.00;;;11.50;27.10;;;;;;10300521;28;20616;-76
2022/04/29 00:13:23;;;;;;;7.20;6.60;;;11.50;26.90;;;;;;10300329;28;20239;-74
2022/04/29 00:18:27;;;;;;;7.40;6.67;;;11.50;26.90;;;;;;10314660;28;20234;-75
2022/04/29 00:23:30;;;;;;;7.77;7.03;;;11.50;27.20;;;;;;10297281;28;20236;-75
2022/04/29 00:28:34;;;;;;;7.73;6.90;;;11.40;26.90;;;;;;10294536;28;20236;-74
2022/04/29 00:33:38;;;;;;;7.47;6.20;;;11.30;26.90;;;;;;10296641;28;20727;-75
2022/04/29 00:38:41;;;;;;;6.60;5.97;;;11.20;27.20;;;;;;10302652;28;20255;-75
2022/04/29 00:43:44;;;;;;;6.27;5.77;;;11.10;27.30;;;;;;10310055;28;20722;-76
2022/04/29 00:48:49;;;;;;;6.60;6.00;;;11.10;27.50;;;;;;10304101;28;20235;-74
2022/04/29 00:53:54;;;;;;;9.47;7.77;;;11.10;27.70;;;;;;10301374;28;20712;-74
2022/04/29 00:59:02;;;;;;;10.47;9.17;;;11.10;27.30;;;;;;10303612;28;20227;-74
2022/04/29 01:04:09;;;;;;;9.73;7.83;;;11.00;27.70;;;;;;10311359;28;20231;-74
2022/04/29 01:09:12;;;;;;;10.00;8.10;;;10.80;27.40;;;;;;10306483;28;20238;-75
2022/04/29 01:14:16;;;;;;;9.13;7.27;;;10.70;27.40;;;;;;10304332;28;20739;-74
2022/04/29 01:19:20;;;;;;;7.93;7.23;;;10.60;27.60;;;;;;10364440;23;20242;-77
2022/04/29 01:24:25;;;;;;;6.93;6.23;;;10.60;28.00;;;;;;10265683;28;20262;-76
2022/04/29 01:29:31;;;;;;;6.80;6.20;;;10.60;27.90;;;;;;10261709;28;20819;-78
2022/04/29 01:34:34;;;;;;;6.13;5.57;;;10.60;28.00;;;;;;10262368;28;20261;-77
2022/04/29 01:39:39;;;;;;;6.23;5.63;;;10.50;27.60;;;;;;10258825;28;20246;-77
2022/04/29 01:44:42;;;;;;;6.30;5.67;;;10.50;27.90;;;;;;10262094;28;20251;-77
2022/04/29 01:49:46;;;;;;;7.93;5.70;;;10.40;27.60;;;;;;10259896;28;20236;-77
2022/04/29 01:54:50;;;;;;;6.03;5.53;;;10.20;27.90;;;;;;10261915;28;20645;-77
2022/04/29 01:59:53;;;;;;;6.43;5.83;;;10.10;28.00;;;;;;10262032;28;20230;-76
2022/04/29 02:04:57;;;;;;;5.87;5.37;;;10.00;27.90;;;;;;10267006;28;20239;-76
2022/04/29 02:10:01;;;;;;;5.27;4.80;;;10.00;28.10;;;;;;10262604;28;20730;-77
2022/04/29 02:15:05;;;;;;;5.63;4.97;;;9.90;29.00;;;;;;10266039;28;20232;-76
2022/04/29 02:20:09;;;;;;;7.20;6.50;;;9.80;28.90;;;;;;10262037;28;20755;-77
2022/04/29 02:25:14;;;;;;;6.90;5.90;;;9.80;28.90;;;;;;10264534;28;20239;-76
2022/04/29 02:30:17;;;;;;;6.77;6.07;;;9.70;28.90;;;;;;10262935;28;20323;-77
2022/04/29 02:35:21;;;;;;;6.63;6.03;;;9.60;28.80;;;;;;10262871;28;20242;-76
2022/04/29 02:40:25;;;;;;;6.93;5.93;;;9.60;28.80;;;;;;10260384;28;20307;-76
2022/04/29 02:45:28;;;;;;;5.77;5.27;;;9.40;29.10;;;;;;10258510;28;20854;-77
2022/04/29 02:50:31;;;;;;;6.63;6.03;;;9.40;28.70;;;;;;10255277;28;20240;-76
2022/04/29 02:55:36;;;;;;;6.30;5.73;;;9.30;28.80;;;;;;10259481;28;20266;-77
2022/04/29 03:00:40;;;;;;;6.23;5.67;;;9.30;29.40;;;;;;10259494;28;20236;-77
2022/04/29 03:05:43;;;;;;;5.50;5.07;;;9.20;29.00;;;;;;10261594;28;20236;-77
2022/04/29 03:10:47;;;;;;;5.43;4.93;;;9.20;29.10;;;;;;10264980;28;20239;-77
2022/04/29 03:15:51;;;;;;;5.57;5.10;;;9.20;29.50;;;;;;10260713;28;20258;-76
2022/04/29 03:20:57;;;;;;;5.30;4.90;;;9.10;29.10;;;;;;10262295;28;20235;-76
2022/04/29 03:26:01;;;;;;;5.33;4.23;;;9.10;29.60;;;;;;10264108;28;20644;-79
2022/04/29 03:31:05;;;;;;;4.77;4.37;;;9.10;29.40;;;;;;10256819;28;20239;-77
2022/04/29 03:36:09;;;;;;;5.67;5.17;;;9.00;29.10;;;;;;10257801;28;20296;-79
2022/04/29 03:41:13;;;;;;;4.50;4.10;;;9.10;29.40;;;;;;10256922;28;20242;-76
2022/04/29 03:46:17;;;;;;;4.97;4.53;;;9.00;29.40;;;;;;10256021;28;20758;-76
2022/04/29 03:51:21;;;;;;;5.30;4.90;;;9.00;29.20;;;;;;10260235;28;20279;-77
2022/04/29 03:56:26;;;;;;;6.37;5.83;;;9.00;29.40;;;;;;10253334;28;20656;-78
2022/04/29 04:01:33;;;;;;;7.20;5.80;;;8.90;29.30;;;;;;10256331;28;20618;-77
2022/04/29 04:06:52;;;;;;;7.10;6.47;;;8.90;29.30;;;;;;10255964;28;20322;-77
2022/04/29 04:11:56;;;;;;;22.30;17.73;;;8.80;29.30;;;;;;10265018;28;20227;-78
2022/04/29 04:16:59;;;;;;;14.57;13.07;;;8.80;29.60;;;;;;10256947;28;20240;-77
2022/04/29 04:22:03;;;;;;;17.87;15.37;;;8.80;29.60;;;;;;10263135;28;20303;-76
2022/04/29 04:27:08;;;;;;;20.47;16.13;;;8.70;29.50;;;;;;10266291;28;20615;-78
2022/04/29 04:32:11;;;;;;;18.47;15.30;;;8.70;29.80;;;;;;10266298;28;20716;-77
2022/04/29 04:37:14;;;;;;;16.67;14.37;;;8.70;29.70;;;;;;10267416;28;20689;-77
2022/04/29 04:42:19;;;;;;;14.17;11.23;;;8.70;29.70;;;;;;10264248;28;20228;-78
2022/04/29 04:47:23;;;;;;;13.20;10.67;;;8.70;30.00;;;;;;10263458;28;20241;-78
2022/04/29 04:52:26;;;;;;;9.53;7.90;;;8.60;30.00;;;;;;10266896;28;20588;-77
2022/04/29 04:57:30;;;;;;;8.83;7.87;;;8.70;30.10;;;;;;10259164;28;20236;-76
2022/04/29 05:02:34;;;;;;;11.20;7.13;;;8.70;30.60;;;;;;10259834;28;20233;-76
2022/04/29 05:07:38;;;;;;;7.10;6.40;;;8.70;30.20;;;;;;10268137;28;20231;-76
2022/04/29 05:12:45;;;;;;;6.50;5.90;;;8.80;30.40;;;;;;10268724;28;20239;-76
2022/04/29 05:17:48;;;;;;;6.57;6.07;;;8.90;32.70;;;;;;10264639;28;20232;-75
2022/04/29 05:22:51;;;;;;;6.10;5.60;;;9.00;32.00;;;;;;10260769;28;20228;-76
2022/04/29 05:27:56;;;;;;;6.70;6.20;;;9.10;31.00;;;;;;10261466;28;20236;-76
2022/04/29 05:32:59;;;;;;;6.40;5.87;;;9.10;31.30;;;;;;10261418;28;20243;-76
2022/04/29 05:38:03;;;;;;;6.77;6.00;;;9.20;31.10;;;;;;10261667;28;20231;-77
2022/04/29 05:43:08;;;;;;;6.67;6.07;;;9.20;31.30;;;;;;10257141;28;20298;-76
2022/04/29 05:48:12;;;;;;;6.10;5.60;;;9.20;31.70;;;;;;10255849;28;20240;-76
2022/04/29 05:53:15;;;;;;;5.67;5.20;;;9.30;31.50;;;;;;10261642;28;20231;-76
2022/04/29 05:58:20;;;;;;;6.23;5.73;;;9.40;31.50;;;;;;10259996;28;20608;-76
2022/04/29 06:03:23;;;;;;;8.73;7.93;;;9.50;32.10;;;;;;10254751;28;20692;-75
2022/04/29 06:08:27;;;;;;;8.30;7.50;;;9.70;31.80;;;;;;10263700;28;20306;-76
2022/04/29 06:13:31;;;;;;;6.87;6.27;;;9.80;31.90;;;;;;10263373;28;20240;-75
2022/04/29 06:18:34;;;;;;;6.07;5.57;;;10.00;31.50;;;;;;10260061;28;20691;-75
2022/04/29 06:23:37;;;;;;;6.03;5.50;;;10.10;31.00;;;;;;10256516;28;20228;-76
2022/04/29 06:28:42;;;;;;;5.90;5.33;;;10.20;30.90;;;;;;10258829;28;20236;-76
2022/04/29 06:33:45;;;;;;;6.47;5.87;;;10.40;31.50;;;;;;10259067;28;20232;-76
2022/04/29 06:38:48;;;;;;;6.67;6.07;;;10.50;31.30;;;;;;10256360;28;20232;-76
2022/04/29 06:43:53;;;;;;;6.50;5.90;;;10.70;31.50;;;;;;10266377;28;20224;-76
2022/04/29 06:48:58;;;;;;;6.77;6.27;;;10.90;32.10;;;;;;10264028;28;20819;-75
2022/04/29 06:54:01;;;;;;;6.80;6.30;;;11.10;32.00;;;;;;10257893;28;20719;-75
2022/04/29 06:59:05;;;;;;;6.43;5.93;;;11.20;32.10;;;;;;10257924;28;20236;-75
2022/04/29 07:04:09;;;;;;;6.47;5.87;;;11.30;32.60;;;;;;10250858;28;20235;-76
2022/04/29 07:09:12;;;;;;;7.50;6.90;;;11.60;32.30;;;;;;10257971;28;20903;-75
2022/04/29 07:14:16;;;;;;;7.13;6.43;;;11.80;32.50;;;;;;10257083;28;20239;-77
2022/04/29 07:19:19;;;;;;;7.40;6.73;;;12.00;33.00;;;;;;10257664;28;20250;-76
2022/04/29 07:24:23;;;;;;;7.50;6.90;;;12.20;32.50;;;;;;10258728;28;20231;-77
2022/04/29 07:29:28;;;;;;;7.20;6.57;;;12.40;32.70;;;;;;10261893;28;21083;-77
2022/04/29 07:45:14;;;;;;;7.87;7.20;;;13.20;33.00;;;;;;10266087;28;20232;-76
2022/04/29 07:50:17;;;;;;;7.90;7.23;;;13.50;33.40;;;;;;10272025;28;20250;-76
2022/04/29 07:55:20;;;;;;;7.37;6.83;;;13.80;33.30;;;;;;10270838;28;20825;-76
2022/04/29 08:00:25;;;;;;;8.17;7.57;;;14.10;33.20;;;;;;10277750;28;20605;-76
2022/04/29 08:05:28;;;;;;;7.20;6.60;;;14.50;34.60;;;;;;10266540;28;20231;-76
2022/04/29 08:10:33;;;;;;;7.60;6.90;;;14.80;33.40;;;;;;10276309;28;20232;-76
2022/04/29 08:15:38;;;;;;;6.20;5.67;;;15.10;33.50;;;;;;10266485;28;20236;-76
2022/04/29 08:20:41;;;;;;;6.70;6.10;;;15.50;33.00;;;;;;10268668;28;20231;-76
2022/04/29 08:25:45;;;;;;;6.87;6.27;;;15.80;32.80;;;;;;10273186;28;20228;-76
2022/04/29 08:30:49;;;;;;;4.60;4.10;;;16.20;33.20;;;;;;10267847;28;20223;-76
2022/04/29 08:35:55;;;;;;;4.37;4.07;;;16.60;30.50;;;;;;10269796;28;20224;-77
2022/04/29 08:41:01;;;;;;;4.10;3.80;;;17.10;30.10;;;;;;10273277;28;20659;-77
2022/04/29 08:46:08;;;;;;;4.27;3.97;;;17.50;29.10;;;;;;10269633;28;20236;-76
2022/04/29 08:51:12;;;;;;;4.27;3.80;;;17.80;28.10;;;;;;10273741;28;20314;-76
2022/04/29 09:01:38;;;;;;;4.90;4.40;;;18.50;27.30;;;;;;10264612;28;20224;-77
2022/04/29 09:06:48;;;;;;;4.43;4.03;;;18.80;25.90;;;;;;10272678;28;20696;-77
2022/04/29 09:12:16;;;;;;;4.00;3.70;;;19.00;24.70;;;;;;10270671;28;20308;-76
2022/04/29 09:17:28;;;;;;;4.50;4.10;;;19.20;25.10;;;;;;10264142;28;23092;-77
2022/04/29 09:22:32;;;;;;;4.13;3.83;;;19.40;24.90;;;;;;10265163;28;20228;-76
2022/04/29 09:27:57;;;;;;;4.47;4.07;;;19.60;25.40;;;;;;10263626;28;20239;-76
2022/04/29 09:33:02;;;;;;;5.00;4.60;;;19.80;25.20;;;;;;10267131;28;20302;-75
2022/04/29 09:43:38;;;;;;;4.93;3.90;;;20.20;25.50;;;;;;10268351;28;21418;-75
2022/04/29 09:49:02;;;;;;;4.77;4.37;;;20.30;23.80;;;;;;10263294;28;20235;-75
2022/04/29 09:54:10;;;;;;;4.90;4.50;;;20.50;23.50;;;;;;10271369;28;20791;-76
2022/04/29 09:59:14;;;;;;;5.00;4.60;;;20.70;23.80;;;;;;10275380;28;20247;-75
2022/04/29 10:04:26;;;;;;;5.43;4.93;;;20.80;24.80;;;;;;10273968;28;20294;-75
2022/04/29 10:09:32;;;;;;;4.90;4.50;;;20.90;23.40;;;;;;10270736;28;20716;-75
2022/04/29 10:14:38;;;;;;;4.77;4.37;;;21.00;23.90;;;;;;10266470;28;20259;-74
2022/04/29 10:25:10;;;;;;;5.00;4.60;;;21.30;22.50;;;;;;10275232;28;20706;-74
2022/04/29 10:30:31;;;;;;;5.37;4.87;;;21.40;23.20;;;;;;10510167;27;20590;-74
2022/04/29 10:35:50;;;;;;;5.50;4.50;;;21.50;22.00;;;;;;10462450;28;20236;-74
2022/04/29 10:41:16;;;;;;;5.30;4.90;;;21.60;22.20;;;;;;10469043;28;20307;-74
2022/04/29 10:46:24;;;;;;;4.90;4.50;;;21.60;22.70;;;;;;10483332;28;20224;-74
2022/04/29 10:51:46;;;;;;;5.10;4.60;;;21.70;22.10;;;;;;10448076;28;20346;-74
2022/04/29 10:57:01;;;;;;;7.03;4.37;;;21.70;21.70;;;;;;10481277;28;20228;-74
2022/04/29 11:02:13;;;;;;;4.60;4.30;;;21.80;21.30;;;;;;10482860;28;20227;-74
2022/04/29 11:07:41;;;;;;;4.57;4.27;;;21.80;21.30;;;;;;10473083;28;20320;-74
2022/04/29 11:12:57;;;;;;;4.70;4.40;;;22.00;21.40;;;;;;10472733;28;20654;-74
2022/04/29 11:18:25;;;;;;;5.00;4.60;;;22.10;21.10;;;;;;10471614;28;20669;-75
2022/04/29 11:28:54;;;;;;;9.87;4.60;;;22.20;22.10;;;;;;10469408;28;20229;-74
2022/04/29 11:34:07;;;;;;;4.60;4.20;;;22.20;21.10;;;;;;10468544;28;20654;-73
2022/04/29 11:39:15;;;;;;;4.67;4.37;;;22.30;20.60;;;;;;10455791;28;20220;-74
2022/04/29 11:44:23;;;;;;;5.30;4.90;;;22.40;20.80;;;;;;10442774;28;20228;-73
2022/04/29 11:49:32;;;;;;;4.93;4.53;;;22.40;21.70;;;;;;10435932;28;20233;-73
2022/04/29 11:54:35;;;;;;;4.83;4.43;;;22.30;20.40;;;;;;10436994;28;20237;-76
2022/04/29 11:59:39;;;;;;;6.00;4.20;;;22.40;21.60;;;;;;10440501;28;20245;-74
2022/04/29 12:04:55;;;;;;;4.37;4.07;;;22.40;21.70;;;;;;10432946;28;20228;-76
2022/04/29 12:09:59;;;;;;;5.30;4.80;;;22.50;20.60;;;;;;10438065;28;20228;-76
2022/04/29 12:15:03;;;;;;;5.50;4.30;;;22.50;20.80;;;;;;10435500;28;20221;-76
2022/04/29 12:20:10;;;;;;;4.73;4.43;;;22.40;21.60;;;;;;10436547;28;20239;-76
2022/04/29 12:25:25;;;;;;;4.53;4.23;;;22.30;19.60;;;;;;10437774;28;20623;-75
2022/04/29 12:35:50;;;;;;;4.30;4.00;;;22.30;21.30;;;;;;10437860;28;20227;-76
2022/04/29 12:40:53;;;;;;;5.07;4.67;;;22.30;20.80;;;;;;10439125;28;20232;-76
2022/04/29 12:45:56;;;;;;;5.03;4.63;;;22.40;20.40;;;;;;10436446;28;20323;-78
2022/04/29 12:51:01;;;;;;;5.27;4.77;;;22.40;20.70;;;;;;10436519;28;20225;-77
2022/04/29 12:56:05;;;;;;;4.73;3.83;;;22.40;20.20;;;;;;10436973;28;20708;-77
2022/04/29 13:01:09;;;;;;;4.90;4.60;;;22.40;20.80;;;;;;10432574;28;20233;-75
2022/04/29 13:06:14;;;;;;;5.37;4.87;;;22.50;20.20;;;;;;10436795;28;20423;-74
2022/04/29 13:11:17;;;;;;;5.03;4.60;;;22.60;19.50;;;;;;10438237;28;20221;-75
2022/04/29 13:16:22;;;;;;;4.70;4.30;;;22.60;19.80;;;;;;10436586;28;20611;-74
2022/04/29 13:21:26;;;;;;;4.87;4.33;;;22.50;19.80;;;;;;10435440;28;20233;-75
2022/04/29 13:26:32;;;;;;;4.47;4.17;;;22.60;19.60;;;;;;10432432;28;20233;-75
2022/04/29 13:31:35;;;;;;;5.17;4.53;;;22.50;19.90;;;;;;10434574;28;20232;-75
2022/04/29 13:36:40;;;;;;;4.20;3.90;;;22.50;19.70;;;;;;10433071;28;20319;-75
2022/04/29 13:41:43;;;;;;;4.10;3.80;;;22.50;19.40;;;;;;10437470;28;20229;-74
2022/04/29 13:46:46;;;;;;;4.07;3.77;;;22.50;19.60;;;;;;10433041;28;20221;-74
2022/04/29 13:51:53;;;;;;;4.00;3.70;;;22.50;19.40;;;;;;10432488;28;20271;-76
2022/04/29 13:56:58;;;;;;;3.90;3.50;;;22.60;18.90;;;;;;10431659;28;20486;-76
2022/04/29 14:02:01;;;;;;;3.97;3.67;;;22.70;19.40;;;;;;10435800;28;20264;-76
2022/04/29 14:07:06;;;;;;;3.60;3.40;;;22.70;19.20;;;;;;10436096;28;20220;-76
2022/04/29 14:12:11;;;;;;;4.17;3.80;;;22.70;18.60;;;;;;10433766;28;20876;-76
2022/04/29 14:17:15;;;;;;;4.70;3.93;;;22.70;18.90;;;;;;10433326;28;20310;-76
2022/04/29 14:22:20;;;;;;;3.63;3.30;;;22.70;18.90;;;;;;10436500;28;20298;-76
2022/04/29 14:27:24;;;;;;;3.90;3.60;;;22.70;18.40;;;;;;10434311;28;20225;-76
2022/04/29 14:32:27;;;;;;;3.90;3.10;;;22.70;18.70;;;;;;10443571;28;20228;-74
2022/04/29 14:37:32;;;;;;;3.60;3.30;;;22.70;18.90;;;;;;10440511;28;20724;-74
2022/04/29 14:42:35;;;;;;;4.93;3.70;;;22.90;18.60;;;;;;10447255;28;20585;-73
2022/04/29 14:47:38;;;;;;;3.80;3.50;;;23.00;18.30;;;;;;10409432;28;20233;-74
2022/04/29 14:52:43;;;;;;;4.03;3.73;;;23.00;18.40;;;;;;10410351;28;20723;-74
2022/04/29 14:57:46;;;;;;;3.80;3.50;;;23.20;18.00;;;;;;10446264;28;20721;-74
2022/04/29 15:02:49;;;;;;;4.30;3.90;;;23.20;18.10;;;;;;10446363;28;20288;-74
2022/04/29 15:07:54;;;;;;;3.43;3.17;;;23.30;17.70;;;;;;10439380;28;20355;-74
2022/04/29 15:18:19;;;;;;;3.50;3.20;;;23.30;17.40;;;;;;10439407;28;20244;-74
2022/04/29 15:23:24;;;;;;;4.03;3.73;;;23.40;17.50;;;;;;10433690;28;20778;-75
2022/04/29 15:28:27;;;;;;;3.80;3.50;;;23.50;17.50;;;;;;10428451;28;20232;-75
2022/04/29 15:33:30;;;;;;;4.03;3.73;;;23.50;17.50;;;;;;10433784;28;20708;-75
2022/04/29 15:38:35;;;;;;;3.83;3.53;;;23.40;17.50;;;;;;10428133;28;20248;-75
2022/04/29 15:43:38;;;;;;;3.37;3.13;;;23.40;17.50;;;;;;10436760;28;20266;-75
2022/04/29 15:48:41;;;;;;;4.80;3.83;;;23.40;17.50;;;;;;10436566;28;20255;-75
2022/04/29 15:53:46;;;;;;;3.90;3.53;;;23.40;17.50;;;;;;10442173;28;20221;-75
2022/04/29 15:58:49;;;;;;;4.20;3.80;;;23.30;17.40;;;;;;10424354;28;20230;-75
2022/04/29 16:03:53;;;;;;;4.20;3.90;;;23.30;17.40;;;;;;10438834;28;20236;-75
2022/04/29 16:08:58;;;;;;;4.40;4.10;;;23.20;17.40;;;;;;10429173;28;20240;-75
2022/04/29 16:14:02;;;;;;;5.53;4.33;;;23.00;17.00;;;;;;10440413;28;20233;-74
2022/04/29 16:29:48;;;;;;;3.80;3.50;;;22.70;17.00;;;;;;10436907;28;20256;-74
2022/04/29 16:34:51;;;;;;;4.40;4.00;;;22.70;17.00;;;;;;10437465;28;20221;-75
2022/04/29 16:39:56;;;;;;;3.83;3.53;;;22.60;16.90;;;;;;10437796;28;20263;-75
2022/04/29 16:44:59;;;;;;;3.93;3.53;;;22.60;16.90;;;;;;10441615;28;20320;-75
2022/04/29 16:50:03;;;;;;;3.97;3.67;;;22.50;16.80;;;;;;10434546;28;20226;-75
2022/04/29 16:55:09;;;;;;;5.87;3.20;;;22.50;16.80;;;;;;10435734;28;20246;-75
2022/04/29 17:00:13;;;;;;;3.80;3.50;;;22.40;16.80;;;;;;10438709;28;20747;-75
2022/04/29 17:05:18;;;;;;;3.27;2.77;;;22.40;16.80;;;;;;10437880;28;20236;-75
2022/04/29 17:10:22;;;;;;;3.63;3.20;;;22.40;16.90;;;;;;10433158;28;20233;-75
2022/04/29 17:15:25;;;;;;;3.53;3.23;;;22.40;16.80;;;;;;10439038;28;20220;-75
2022/04/29 17:20:29;;;;;;;3.70;3.40;;;22.40;16.80;;;;;;10431871;28;20232;-75
2022/04/29 17:25:34;;;;;;;3.47;3.20;;;22.40;16.80;;;;;;10438070;28;20240;-75
2022/04/29 17:30:37;;;;;;;3.30;3.10;;;22.30;16.70;;;;;;10437458;28;20232;-75
2022/04/29 17:35:40;;;;;;;3.00;2.67;;;22.40;17.60;;;;;;10446009;28;20720;-75
2022/04/29 17:46:05;;;;;;;4.30;3.20;;;22.30;17.00;;;;;;10437336;28;20695;-75
2022/04/29 17:51:09;;;;;;;3.20;3.00;;;22.30;17.20;;;;;;10431964;28;20316;-75
2022/04/29 17:56:14;;;;;;;3.13;2.90;;;22.20;17.80;;;;;;10431932;28;20229;-76
2022/04/29 18:01:17;;;;;;;2.87;2.67;;;22.20;17.70;;;;;;10432727;28;20296;-76
2022/04/29 18:06:21;;;;;;;3.63;3.33;;;22.10;17.80;;;;;;10433424;28;20221;-76
2022/04/29 18:11:25;;;;;;;3.13;2.93;;;22.00;17.70;;;;;;10436105;28;20229;-75
2022/04/29 18:16:29;;;;;;;3.40;2.90;;;21.90;18.00;;;;;;10435272;28;20229;-75
2022/04/29 18:21:32;;;;;;;4.77;4.27;;;21.90;18.10;;;;;;10430345;28;20225;-75
2022/04/29 18:26:37;;;;;;;5.13;4.73;;;21.70;18.20;;;;;;10433751;28;20643;-75
2022/04/29 18:31:40;;;;;;;5.40;4.63;;;21.70;18.30;;;;;;10434032;28;20265;-75
2022/04/29 18:36:46;;;;;;;4.40;4.00;;;21.60;18.50;;;;;;10442318;28;20244;-74
2022/04/29 18:42:03;;;;;;;4.20;3.90;;;21.50;18.70;;;;;;10421035;28;20247;-74
2022/04/29 18:47:07;;;;;;;4.50;4.20;;;21.40;18.90;;;;;;10435655;28;20315;-74
2022/04/29 18:52:10;;;;;;;4.97;4.67;;;21.20;18.70;;;;;;10436079;28;20241;-74
2022/04/29 18:57:16;;;;;;;6.57;5.97;;;21.10;19.00;;;;;;10432899;28;20765;-74
2022/04/29 19:02:20;;;;;;;5.90;5.40;;;20.90;19.10;;;;;;10451453;28;20315;-74
2022/04/29 19:07:23;;;;;;;5.53;5.13;;;20.70;19.10;;;;;;10456252;28;20232;-74
2022/04/29 19:12:28;;;;;;;5.40;4.90;;;20.60;19.10;;;;;;10447392;28;20236;-74
2022/04/29 19:17:32;;;;;;;5.33;4.83;;;20.50;19.30;;;;;;10447682;28;20374;-74
2022/04/29 19:22:35;;;;;;;5.13;4.73;;;20.40;19.40;;;;;;10447928;28;20239;-73
2022/04/29 19:27:41;;;;;;;4.17;3.87;;;20.30;19.40;;;;;;10442010;28;20239;-74
2022/04/29 19:32:44;;;;;;;5.20;4.80;;;20.20;19.60;;;;;;10454974;28;20724;-75
2022/04/29 19:37:47;;;;;;;5.67;5.13;;;20.00;19.50;;;;;;10436655;28;20332;-74
2022/04/29 19:42:52;;;;;;;5.57;4.93;;;19.90;19.70;;;;;;10436541;28;20630;-74
2022/04/29 19:48:42;;;;;;;6.23;5.60;;;19.80;19.70;;;;;;10288642;23;20235;-76
2022/04/29 19:54:14;;;;;;;6.87;5.93;;;19.60;19.80;;;;;;10266599;28;20225;-76
2022/04/29 19:59:31;;;;;;;4.40;4.00;;;19.40;20.10;;;;;;10264967;28;20230;-76
2022/04/29 20:04:35;;;;;;;4.70;4.30;;;19.20;20.00;;;;;;10317455;28;20239;-76
2022/04/29 20:09:38;;;;;;;4.83;4.33;;;19.10;20.10;;;;;;10302079;28;20732;-76
2022/04/29 20:14:43;;;;;;;9.53;8.47;;;19.00;20.30;;;;;;10307062;28;20231;-76
2022/04/29 20:19:50;;;;;;;7.73;6.93;;;18.90;20.30;;;;;;10301448;28;20246;-74
2022/04/29 20:24:53;;;;;;;8.03;7.23;;;18.70;20.10;;;;;;10276694;28;20251;-72
2022/04/29 20:29:58;;;;;;;7.57;6.87;;;18.60;20.30;;;;;;10289004;28;20227;-76
2022/04/29 20:35:01;;;;;;;6.43;5.83;;;18.60;20.60;;;;;;10296100;28;20226;-75
2022/04/29 20:45:28;;;;;;;5.17;4.73;;;18.20;20.60;;;;;;10286225;28;20794;-73
2022/04/29 20:50:31;;;;;;;4.77;4.37;;;18.10;20.70;;;;;;10289475;28;20230;-75
2022/04/29 20:55:34;;;;;;;5.13;4.73;;;17.90;20.70;;;;;;10295580;28;20235;-72
2022/04/29 21:00:39;;;;;;;6.27;4.40;;;17.80;20.90;;;;;;10300556;28;20220;-75
2022/04/29 21:05:42;;;;;;;6.53;5.93;;;17.60;21.10;;;;;;10292029;28;20233;-74
2022/04/29 21:10:45;;;;;;;7.63;5.70;;;17.50;21.10;;;;;;10293664;28;20361;-75
2022/04/29 21:15:50;;;;;;;5.40;4.90;;;17.30;21.20;;;;;;10291956;28;20231;-74
2022/04/29 21:20:54;;;;;;;5.20;4.70;;;17.20;21.60;;;;;;10298055;28;20309;-75
2022/04/29 21:25:57;;;;;;;5.43;4.53;;;17.00;21.30;;;;;;10296906;28;20594;-74
2022/04/29 21:31:04;;;;;;;5.40;5.00;;;16.80;21.50;;;;;;10289474;28;20227;-76
2022/04/29 21:36:07;;;;;;;4.63;4.33;;;16.60;22.10;;;;;;10295656;28;20240;-76
2022/04/29 21:41:10;;;;;;;5.43;5.03;;;16.40;21.90;;;;;;10297150;28;20234;-76
2022/04/29 21:46:15;;;;;;;5.73;5.23;;;16.50;22.20;;;;;;10299697;28;20238;-76
2022/04/29 21:51:19;;;;;;;5.43;4.93;;;16.40;22.70;;;;;;10294544;28;20600;-76
2022/04/29 21:56:22;;;;;;;6.67;6.00;;;16.30;22.50;;;;;;10291155;28;20231;-76
2022/04/29 22:01:27;;;;;;;6.77;6.10;;;16.20;22.50;;;;;;10298962;28;20591;-74
2022/04/29 22:06:30;;;;;;;7.00;5.07;;;16.10;22.70;;;;;;10296953;28;20254;-74
2022/04/29 22:11:33;;;;;;;7.13;6.43;;;16.10;22.70;;;;;;10295814;28;20731;-76
2022/04/29 22:16:39;;;;;;;7.53;6.87;;;16.00;22.60;;;;;;10299560;28;20235;-76
2022/04/29 22:21:42;;;;;;;7.53;6.70;;;15.90;22.50;;;;;;10297647;28;20307;-76
2022/04/29 22:26:45;;;;;;;7.10;6.60;;;15.80;22.50;;;;;;10299244;28;20228;-76
2022/04/29 22:31:50;;;;;;;7.53;6.87;;;15.60;22.30;;;;;;10295401;28;20228;-76
2022/04/29 22:36:53;;;;;;;6.43;5.83;;;15.40;22.90;;;;;;10289287;28;20232;-76
2022/04/29 22:41:57;;;;;;;6.83;6.03;;;15.20;22.90;;;;;;10300251;28;20223;-76
2022/04/29 22:47:02;;;;;;;8.97;6.67;;;15.00;23.10;;;;;;10299437;28;20715;-76
2022/04/29 22:52:09;;;;;;;7.83;7.07;;;15.00;24.20;;;;;;10286005;28;20237;-76
2022/04/29 22:57:13;;;;;;;7.20;6.60;;;14.90;23.50;;;;;;10298343;28;20236;-75
2022/04/29 23:02:19;;;;;;;7.80;7.07;;;14.90;23.50;;;;;;10295863;28;20231;-75
2022/04/29 23:07:23;;;;;;;7.17;6.57;;;14.90;23.90;;;;;;10300557;28;20228;-75
2022/04/29 23:12:27;;;;;;;7.43;6.73;;;14.90;23.70;;;;;;10288956;28;20245;-75
2022/04/29 23:22:53;;;;;;;7.70;7.07;;;14.90;24.10;;;;;;10301263;28;20338;-75
2022/04/29 23:27:56;;;;;;;7.10;6.50;;;14.80;23.90;;;;;;10292601;28;20230;-75
2022/04/29 23:33:04;;;;;;;7.20;6.50;;;14.80;23.90;;;;;;10296902;28;20228;-75
2022/04/29 23:38:07;;;;;;;7.37;6.67;;;14.70;24.70;;;;;;10299195;28;20527;-75
2022/04/29 23:43:11;;;;;;;6.00;5.50;;;14.80;24.10;;;;;;10302832;28;20591;-75
2022/04/29 23:48:16;;;;;;;7.37;6.60;;;14.70;23.90;;;;;;10297901;28;20231;-75
2022/04/29 23:53:21;;;;;;;7.60;6.87;;;14.60;24.20;;;;;;10302869;28;20773;-75
2022/04/29 23:58:28;;;;;;;7.90;7.30;;;14.60;24.00;;;;;;10309089;28;20246;-75
